sensor_id;sensor_type;location;lat;lon;timestamp;pressure;altitude;pressure_sealevel;temperature;humidity
36788;BME280;22738;45.560;9.434;2022-12-07T00:01:32;99679.81;;;2.62;100.00
36788;BME280;22738;45.560;9.434;2022-12-07T00:08:14;99669.28;;;2.71;100.00
36788;BME280;22738;45.560;9.434;2022-12-07T00:14:55;99674.31;;;2.74;100.00
36788;BME280;22738;45.560;9.434;2022-12-07T00:21:36;99657.50;;;2.67;100.00
36788;BME280;22738;45.560;9.434;2022-12-07T00:28:17;99651.53;;;2.67;100.00
36788;BME280;22738;45.560;9.434;2022-12-07T00:34:59;99655.28;;;2.57;100.00
36788;BME280;22738;45.560;9.434;2022-12-07T00:41:40;99649.34;;;2.56;100.00
36788;BME280;22738;45.560;9.434;2022-12-07T00:48:22;99642.47;;;2.58;100.00
36788;BME280;22738;45.560;9.434;2022-12-07T00:55:04;99635.78;;;2.54;100.00
36788;BME280;22738;45.560;9.434;2022-12-07T01:01:45;99636.25;;;2.41;100.00
36788;BME280;22738;45.560;9.434;2022-12-07T01:08:28;99624.81;;;2.26;100.00
36788;BME280;22738;45.560;9.434;2022-12-07T01:15:09;99636.66;;;2.29;100.00
36788;BME280;22738;45.560;9.434;2022-12-07T01:21:50;99641.16;;;2.21;100.00
36788;BME280;22738;45.560;9.434;2022-12-07T01:28:32;99636.81;;;2.24;100.00
36788;BME280;22738;45.560;9.434;2022-12-07T01:35:13;99626.91;;;2.15;100.00
36788;BME280;22738;45.560;9.434;2022-12-07T01:41:54;99638.34;;;2.03;100.00
36788;BME280;22738;45.560;9.434;2022-12-07T01:48:41;99635.44;;;2.14;100.00
36788;BME280;22738;45.560;9.434;2022-12-07T01:55:23;99632.72;;;2.18;100.00
36788;BME280;22738;45.560;9.434;2022-12-07T02:02:10;99631.91;;;1.92;100.00
36788;BME280;22738;45.560;9.434;2022-12-07T02:08:54;99628.16;;;1.76;100.00
36788;BME280;22738;45.560;9.434;2022-12-07T02:23:00;99621.84;;;1.87;100.00
36788;BME280;22738;45.560;9.434;2022-12-07T02:36:28;99614.69;;;1.71;100.00
36788;BME280;22738;45.560;9.434;2022-12-07T02:43:38;99613.78;;;1.73;100.00
36788;BME280;22738;45.560;9.434;2022-12-07T02:50:21;99615.47;;;1.73;100.00
36788;BME280;22738;45.560;9.434;2022-12-07T03:03:48;99618.19;;;1.94;100.00
36788;BME280;22738;45.560;9.434;2022-12-07T03:17:46;99599.72;;;1.86;100.00
36788;BME280;22738;45.560;9.434;2022-12-07T03:24:32;99594.63;;;1.60;100.00
36788;BME280;22738;45.560;9.434;2022-12-07T03:31:36;99588.66;;;1.60;100.00
36788;BME280;22738;45.560;9.434;2022-12-07T03:38:31;99597.31;;;1.56;100.00
36788;BME280;22738;45.560;9.434;2022-12-07T03:45:15;99589.28;;;1.68;100.00
36788;BME280;22738;45.560;9.434;2022-12-07T03:52:12;99588.44;;;1.39;100.00
36788;BME280;22738;45.560;9.434;2022-12-07T03:58:53;99576.19;;;1.51;100.00
36788;BME280;22738;45.560;9.434;2022-12-07T04:05:35;99565.47;;;1.39;100.00
36788;BME280;22738;45.560;9.434;2022-12-07T04:12:16;99570.78;;;1.33;100.00
36788;BME280;22738;45.560;9.434;2022-12-07T04:18:57;99566.53;;;1.32;100.00
36788;BME280;22738;45.560;9.434;2022-12-07T04:25:38;99569.44;;;1.50;100.00
36788;BME280;22738;45.560;9.434;2022-12-07T04:32:19;99552.03;;;1.61;100.00
36788;BME280;22738;45.560;9.434;2022-12-07T04:39:01;99542.00;;;1.55;100.00
36788;BME280;22738;45.560;9.434;2022-12-07T04:45:49;99539.25;;;1.34;100.00
36788;BME280;22738;45.560;9.434;2022-12-07T04:52:31;99544.13;;;1.14;100.00
36788;BME280;22738;45.560;9.434;2022-12-07T04:59:14;99559.09;;;1.26;100.00
36788;BME280;22738;45.560;9.434;2022-12-07T05:05:55;99553.91;;;1.29;100.00
36788;BME280;22738;45.560;9.434;2022-12-07T05:12:36;99555.63;;;1.27;100.00
36788;BME280;22738;45.560;9.434;2022-12-07T05:19:18;99561.44;;;1.32;100.00
36788;BME280;22738;45.560;9.434;2022-12-07T05:26:00;99556.81;;;1.17;100.00
36788;BME280;22738;45.560;9.434;2022-12-07T05:32:41;99556.13;;;1.12;100.00
36788;BME280;22738;45.560;9.434;2022-12-07T05:39:22;99562.13;;;1.11;100.00
36788;BME280;22738;45.560;9.434;2022-12-07T05:46:03;99568.41;;;1.00;100.00
36788;BME280;22738;45.560;9.434;2022-12-07T05:52:44;99565.72;;;1.04;100.00
36788;BME280;22738;45.560;9.434;2022-12-07T05:59:25;99569.56;;;1.17;100.00
36788;BME280;22738;45.560;9.434;2022-12-07T06:06:08;99565.34;;;1.16;100.00
36788;BME280;22738;45.560;9.434;2022-12-07T06:12:49;99573.38;;;1.04;100.00
36788;BME280;22738;45.560;9.434;2022-12-07T06:19:30;99579.00;;;1.15;100.00
36788;BME280;22738;45.560;9.434;2022-12-07T06:26:11;99566.94;;;1.20;100.00
36788;BME280;22738;45.560;9.434;2022-12-07T06:32:52;99579.66;;;1.22;100.00
36788;BME280;22738;45.560;9.434;2022-12-07T06:39:33;99578.72;;;1.24;100.00
36788;BME280;22738;45.560;9.434;2022-12-07T06:46:15;99578.19;;;0.84;100.00
36788;BME280;22738;45.560;9.434;2022-12-07T06:52:57;99579.81;;;0.88;100.00
36788;BME280;22738;45.560;9.434;2022-12-07T06:59:38;99582.59;;;1.08;100.00
36788;BME280;22738;45.560;9.434;2022-12-07T07:06:19;99596.47;;;1.27;100.00
36788;BME280;22738;45.560;9.434;2022-12-07T07:13:00;99597.75;;;1.42;100.00
36788;BME280;22738;45.560;9.434;2022-12-07T07:19:41;99599.78;;;1.59;100.00
36788;BME280;22738;45.560;9.434;2022-12-07T07:26:22;99608.94;;;1.66;100.00
36788;BME280;22738;45.560;9.434;2022-12-07T07:33:04;99603.75;;;1.67;100.00
36788;BME280;22738;45.560;9.434;2022-12-07T07:39:45;99599.53;;;1.66;100.00
36788;BME280;22738;45.560;9.434;2022-12-07T07:46:26;99610.69;;;1.90;100.00
36788;BME280;22738;45.560;9.434;2022-12-07T07:53:07;99622.66;;;2.14;100.00
36788;BME280;22738;45.560;9.434;2022-12-07T07:59:49;99634.72;;;5.51;100.00
36788;BME280;22738;45.560;9.434;2022-12-07T08:06:30;99652.41;;;8.20;100.00
36788;BME280;22738;45.560;9.434;2022-12-07T08:13:11;99659.78;;;9.28;100.00
36788;BME280;22738;45.560;9.434;2022-12-07T08:19:52;99656.16;;;10.12;100.00
36788;BME280;22738;45.560;9.434;2022-12-07T08:26:33;99663.38;;;11.34;100.00
36788;BME280;22738;45.560;9.434;2022-12-07T08:33:15;99658.88;;;12.67;100.00
36788;BME280;22738;45.560;9.434;2022-12-07T08:39:56;99671.91;;;13.01;100.00
36788;BME280;22738;45.560;9.434;2022-12-07T08:46:40;99671.44;;;13.73;92.46
36788;BME280;22738;45.560;9.434;2022-12-07T08:53:26;99662.41;;;12.66;98.15
36788;BME280;22738;45.560;9.434;2022-12-07T09:00:08;99662.91;;;10.15;100.00
36788;BME280;22738;45.560;9.434;2022-12-07T09:06:50;99663.94;;;9.30;100.00
36788;BME280;22738;45.560;9.434;2022-12-07T09:13:31;99676.72;;;8.32;100.00
36788;BME280;22738;45.560;9.434;2022-12-07T09:20:12;99668.44;;;6.85;100.00
36788;BME280;22738;45.560;9.434;2022-12-07T09:26:53;99669.91;;;6.39;100.00
36788;BME280;22738;45.560;9.434;2022-12-07T09:33:34;99653.50;;;6.24;100.00
36788;BME280;22738;45.560;9.434;2022-12-07T09:40:17;99661.28;;;6.23;100.00
36788;BME280;22738;45.560;9.434;2022-12-07T09:47:00;99663.19;;;7.03;100.00
36788;BME280;22738;45.560;9.434;2022-12-07T09:53:42;99656.97;;;9.45;100.00
36788;BME280;22738;45.560;9.434;2022-12-07T10:00:25;99654.31;;;11.04;100.00
36788;BME280;22738;45.560;9.434;2022-12-07T10:07:06;99659.19;;;10.96;100.00
36788;BME280;22738;45.560;9.434;2022-12-07T10:13:49;99643.59;;;10.06;100.00
36788;BME280;22738;45.560;9.434;2022-12-07T10:20:34;99641.28;;;9.75;100.00
36788;BME280;22738;45.560;9.434;2022-12-07T10:27:21;99631.09;;;8.32;100.00
36788;BME280;22738;45.560;9.434;2022-12-07T10:34:02;99627.22;;;7.17;100.00
36788;BME280;22738;45.560;9.434;2022-12-07T10:40:44;99617.50;;;6.74;100.00
36788;BME280;22738;45.560;9.434;2022-12-07T10:47:33;99614.03;;;6.58;100.00
36788;BME280;22738;45.560;9.434;2022-12-07T10:54:22;99610.75;;;6.22;100.00
36788;BME280;22738;45.560;9.434;2022-12-07T11:01:25;99602.41;;;6.17;100.00
36788;BME280;22738;45.560;9.434;2022-12-07T11:22:20;99583.81;;;6.29;100.00
36788;BME280;22738;45.560;9.434;2022-12-07T11:36:17;99566.22;;;6.37;100.00
36788;BME280;22738;45.560;9.434;2022-12-07T11:50:00;99559.00;;;6.11;100.00
36788;BME280;22738;45.560;9.434;2022-12-07T11:56:45;99560.19;;;6.21;100.00
36788;BME280;22738;45.560;9.434;2022-12-07T12:03:34;99553.66;;;6.14;100.00
36788;BME280;22738;45.560;9.434;2022-12-07T12:10:23;99543.00;;;6.04;100.00
36788;BME280;22738;45.560;9.434;2022-12-07T12:24:26;99539.75;;;6.01;100.00
36788;BME280;22738;45.560;9.434;2022-12-07T12:37:47;99520.09;;;6.00;100.00
36788;BME280;22738;45.560;9.434;2022-12-07T12:51:41;99508.00;;;5.85;100.00
36788;BME280;22738;45.560;9.434;2022-12-07T12:58:30;99502.63;;;5.89;100.00
36788;BME280;22738;45.560;9.434;2022-12-07T13:12:03;99493.31;;;5.87;100.00
36788;BME280;22738;45.560;9.434;2022-12-07T13:18:45;99480.28;;;5.72;100.00
36788;BME280;22738;45.560;9.434;2022-12-07T13:25:31;99480.97;;;5.76;100.00
36788;BME280;22738;45.560;9.434;2022-12-07T13:32:24;99463.97;;;5.73;100.00
36788;BME280;22738;45.560;9.434;2022-12-07T13:39:20;99464.72;;;5.75;100.00
36788;BME280;22738;45.560;9.434;2022-12-07T13:46:07;99456.78;;;5.80;100.00
36788;BME280;22738;45.560;9.434;2022-12-07T13:52:49;99465.19;;;5.66;100.00
36788;BME280;22738;45.560;9.434;2022-12-07T13:59:30;99461.25;;;5.42;100.00
36788;BME280;22738;45.560;9.434;2022-12-07T14:06:15;99468.34;;;5.37;100.00
36788;BME280;22738;45.560;9.434;2022-12-07T14:12:57;99472.13;;;5.30;100.00
36788;BME280;22738;45.560;9.434;2022-12-07T14:19:46;99471.03;;;5.17;100.00
36788;BME280;22738;45.560;9.434;2022-12-07T14:26:27;99477.91;;;5.17;100.00
36788;BME280;22738;45.560;9.434;2022-12-07T14:33:09;99475.09;;;5.04;100.00
36788;BME280;22738;45.560;9.434;2022-12-07T14:39:50;99477.31;;;4.93;100.00
36788;BME280;22738;45.560;9.434;2022-12-07T14:46:31;99471.94;;;4.80;100.00
36788;BME280;22738;45.560;9.434;2022-12-07T14:53:15;99483.16;;;4.78;100.00
36788;BME280;22738;45.560;9.434;2022-12-07T14:59:56;99477.69;;;4.67;100.00
36788;BME280;22738;45.560;9.434;2022-12-07T15:06:38;99490.94;;;4.58;100.00
36788;BME280;22738;45.560;9.434;2022-12-07T15:13:19;99500.91;;;4.64;100.00
36788;BME280;22738;45.560;9.434;2022-12-07T15:20:19;99498.28;;;4.47;100.00
36788;BME280;22738;45.560;9.434;2022-12-07T15:27:00;99498.91;;;4.33;100.00
36788;BME280;22738;45.560;9.434;2022-12-07T15:33:42;99501.59;;;4.30;100.00
36788;BME280;22738;45.560;9.434;2022-12-07T15:40:23;99498.81;;;4.34;100.00
36788;BME280;22738;45.560;9.434;2022-12-07T15:47:05;99499.78;;;4.13;100.00
36788;BME280;22738;45.560;9.434;2022-12-07T15:53:46;99511.28;;;4.23;100.00
36788;BME280;22738;45.560;9.434;2022-12-07T16:00:27;99512.00;;;4.27;100.00
36788;BME280;22738;45.560;9.434;2022-12-07T16:07:09;99506.28;;;4.20;100.00
36788;BME280;22738;45.560;9.434;2022-12-07T16:13:52;99502.19;;;4.16;100.00
36788;BME280;22738;45.560;9.434;2022-12-07T16:20:33;99511.97;;;4.08;100.00
36788;BME280;22738;45.560;9.434;2022-12-07T16:27:14;99505.78;;;4.12;100.00
36788;BME280;22738;45.560;9.434;2022-12-07T16:33:57;99512.47;;;3.96;100.00
36788;BME280;22738;45.560;9.434;2022-12-07T16:40:38;99509.25;;;3.91;100.00
36788;BME280;22738;45.560;9.434;2022-12-07T16:47:19;99507.34;;;3.96;100.00
36788;BME280;22738;45.560;9.434;2022-12-07T16:54:00;99521.41;;;3.86;100.00
36788;BME280;22738;45.560;9.434;2022-12-07T17:00:43;99529.81;;;3.70;100.00
36788;BME280;22738;45.560;9.434;2022-12-07T17:07:24;99532.25;;;3.73;100.00
36788;BME280;22738;45.560;9.434;2022-12-07T17:14:05;99520.41;;;3.70;100.00
36788;BME280;22738;45.560;9.434;2022-12-07T17:21:07;99512.78;;;3.69;100.00
36788;BME280;22738;45.560;9.434;2022-12-07T17:27:49;99528.34;;;3.64;100.00
36788;BME280;22738;45.560;9.434;2022-12-07T17:34:31;99525.97;;;3.59;100.00
36788;BME280;22738;45.560;9.434;2022-12-07T17:48:18;99516.03;;;3.30;100.00
36788;BME280;22738;45.560;9.434;2022-12-07T17:54:59;99516.78;;;3.34;100.00
36788;BME280;22738;45.560;9.434;2022-12-07T18:01:41;99505.72;;;3.53;100.00
36788;BME280;22738;45.560;9.434;2022-12-07T18:08:22;99514.34;;;3.51;100.00
36788;BME280;22738;45.560;9.434;2022-12-07T18:15:03;99530.34;;;3.36;100.00
36788;BME280;22738;45.560;9.434;2022-12-07T18:21:44;99528.31;;;3.44;100.00
36788;BME280;22738;45.560;9.434;2022-12-07T18:28:26;99528.69;;;3.55;100.00
36788;BME280;22738;45.560;9.434;2022-12-07T18:35:08;99534.75;;;3.54;100.00
36788;BME280;22738;45.560;9.434;2022-12-07T18:41:49;99531.22;;;3.35;100.00
36788;BME280;22738;45.560;9.434;2022-12-07T18:48:30;99534.44;;;3.18;100.00
36788;BME280;22738;45.560;9.434;2022-12-07T18:55:12;99536.38;;;3.13;100.00
36788;BME280;22738;45.560;9.434;2022-12-07T19:01:53;99537.97;;;3.16;100.00
36788;BME280;22738;45.560;9.434;2022-12-07T19:08:35;99543.09;;;3.16;100.00
36788;BME280;22738;45.560;9.434;2022-12-07T19:15:17;99543.69;;;3.22;100.00
36788;BME280;22738;45.560;9.434;2022-12-07T19:21:59;99537.34;;;3.09;100.00
36788;BME280;22738;45.560;9.434;2022-12-07T19:28:40;99545.00;;;3.11;100.00
36788;BME280;22738;45.560;9.434;2022-12-07T19:35:21;99543.38;;;3.08;100.00
36788;BME280;22738;45.560;9.434;2022-12-07T19:42:03;99549.03;;;2.95;100.00
36788;BME280;22738;45.560;9.434;2022-12-07T19:48:44;99549.38;;;2.85;100.00
36788;BME280;22738;45.560;9.434;2022-12-07T19:55:25;99555.53;;;2.80;100.00
36788;BME280;22738;45.560;9.434;2022-12-07T20:02:10;99543.13;;;2.93;100.00
36788;BME280;22738;45.560;9.434;2022-12-07T20:08:52;99550.59;;;2.75;100.00
36788;BME280;22738;45.560;9.434;2022-12-07T20:15:36;99558.38;;;2.72;100.00
36788;BME280;22738;45.560;9.434;2022-12-07T20:22:17;99563.16;;;2.81;100.00
36788;BME280;22738;45.560;9.434;2022-12-07T20:28:59;99558.06;;;2.81;100.00
36788;BME280;22738;45.560;9.434;2022-12-07T20:35:40;99561.50;;;2.80;100.00
36788;BME280;22738;45.560;9.434;2022-12-07T20:42:21;99563.03;;;2.84;100.00
36788;BME280;22738;45.560;9.434;2022-12-07T20:49:17;99550.59;;;2.75;100.00
36788;BME280;22738;45.560;9.434;2022-12-07T20:55:58;99558.16;;;2.78;100.00
36788;BME280;22738;45.560;9.434;2022-12-07T21:02:40;99562.69;;;2.94;100.00
36788;BME280;22738;45.560;9.434;2022-12-07T21:09:21;99561.59;;;3.01;100.00
36788;BME280;22738;45.560;9.434;2022-12-07T21:16:09;99559.97;;;2.98;100.00
36788;BME280;22738;45.560;9.434;2022-12-07T21:22:50;99561.75;;;2.96;100.00
36788;BME280;22738;45.560;9.434;2022-12-07T21:29:31;99562.34;;;3.03;100.00
36788;BME280;22738;45.560;9.434;2022-12-07T21:36:15;99564.06;;;3.02;100.00
36788;BME280;22738;45.560;9.434;2022-12-07T21:42:56;99556.22;;;3.07;100.00
36788;BME280;22738;45.560;9.434;2022-12-07T21:49:37;99556.06;;;3.11;100.00
36788;BME280;22738;45.560;9.434;2022-12-07T21:56:23;99568.56;;;3.19;100.00
36788;BME280;22738;45.560;9.434;2022-12-07T22:03:05;99562.38;;;3.24;100.00
36788;BME280;22738;45.560;9.434;2022-12-07T22:09:46;99556.69;;;3.18;100.00
36788;BME280;22738;45.560;9.434;2022-12-07T22:16:28;99552.44;;;3.17;100.00
36788;BME280;22738;45.560;9.434;2022-12-07T22:23:09;99554.75;;;3.23;100.00
36788;BME280;22738;45.560;9.434;2022-12-07T22:29:50;99564.19;;;3.22;100.00
36788;BME280;22738;45.560;9.434;2022-12-07T22:36:31;99555.72;;;3.20;100.00
36788;BME280;22738;45.560;9.434;2022-12-07T22:43:12;99554.56;;;3.27;100.00
36788;BME280;22738;45.560;9.434;2022-12-07T22:49:53;99560.53;;;3.28;100.00
36788;BME280;22738;45.560;9.434;2022-12-07T22:56:36;99567.19;;;3.32;100.00
36788;BME280;22738;45.560;9.434;2022-12-07T23:03:18;99554.38;;;3.32;100.00
36788;BME280;22738;45.560;9.434;2022-12-07T23:09:59;99557.97;;;3.28;100.00
36788;BME280;22738;45.560;9.434;2022-12-07T23:16:40;99565.13;;;3.20;100.00
36788;BME280;22738;45.560;9.434;2022-12-07T23:23:22;99563.22;;;3.25;100.00
36788;BME280;22738;45.560;9.434;2022-12-07T23:30:04;99571.69;;;3.27;100.00
36788;BME280;22738;45.560;9.434;2022-12-07T23:36:45;99562.59;;;3.18;100.00
36788;BME280;22738;45.560;9.434;2022-12-07T23:43:27;99549.75;;;3.20;100.00
36788;BME280;22738;45.560;9.434;2022-12-07T23:50:08;99551.66;;;3.15;100.00
36788;BME280;22738;45.560;9.434;2022-12-07T23:56:49;99538.94;;;3.13;100.00
